Time;durP1;ratioP1;P1;durP2;ratioP2;P2;SDS_P1;SDS_P2;PMS_P1;PMS_P2;Temp;Humidity;BMP_temperature;BMP_pressure;BME280_temperature;BME280_humidity;BME280_pressure;Samples;Min_cycle;Max_cycle;Signal;HPM_P1;HPM_P2
2022/08/03 00:02:18;;;;;;;;;6.00;5.00;;;;;25.26;51.96;100979.00;5094092;27;47380;-85
2022/08/03 00:04:43;;;;;;;;;5.25;5.25;;;;;25.14;52.62;100969.41;5093952;27;45543;-83
2022/08/03 00:07:09;;;;;;;;;6.00;5.00;;;;;25.34;52.25;100998.56;5094135;27;45390;-84
2022/08/03 00:09:34;;;;;;;;;5.25;5.25;;;;;25.20;52.37;100969.25;5094381;27;46071;-85
2022/08/03 00:11:59;;;;;;;;;5.00;5.00;;;;;25.35;52.92;100996.75;5094169;27;46555;-84
2022/08/03 00:14:25;;;;;;;;;5.00;5.00;;;;;25.34;52.27;101000.38;5075415;27;45402;-84
2022/08/03 00:16:50;;;;;;;;;4.50;4.50;;;;;25.37;52.68;100997.59;5094245;27;45495;-83
2022/08/03 00:19:15;;;;;;;;;5.00;5.00;;;;;25.15;52.10;100955.03;5094334;27;45509;-84
2022/08/03 00:21:41;;;;;;;;;4.75;4.75;;;;;25.33;52.58;100986.03;5093768;27;45582;-83
2022/08/03 00:24:06;;;;;;;;;5.00;5.00;;;;;25.43;52.66;100994.78;5093772;27;45492;-85
2022/08/03 00:26:31;;;;;;;;;5.75;5.00;;;;;25.40;52.42;100987.66;5094333;27;45404;-83
2022/08/03 00:28:57;;;;;;;;;5.25;4.50;;;;;25.35;52.84;100975.22;5093954;27;45326;-83
2022/08/03 00:31:22;;;;;;;;;5.00;5.00;;;;;25.41;52.64;100992.09;5075813;27;46109;-84
2022/08/03 00:33:47;;;;;;;;;5.00;4.75;;;;;25.58;52.90;101012.38;5097615;27;45441;-85
2022/08/03 00:36:13;;;;;;;;;5.00;4.75;;;;;25.36;52.49;100979.69;5097694;27;45354;-84
2022/08/03 00:38:38;;;;;;;;;4.50;4.50;;;;;25.39;52.94;100996.66;5079028;27;45475;-84
2022/08/03 00:41:03;;;;;;;;;5.00;5.00;;;;;25.35;53.21;100991.38;5097515;27;46034;-84
2022/08/03 00:43:29;;;;;;;;;5.00;4.50;;;;;25.08;53.61;100974.03;5078899;27;45442;-83
2022/08/03 00:45:54;;;;;;;;;4.00;4.00;;;;;25.04;53.42;100977.69;5078940;27;45358;-85
2022/08/03 00:48:20;;;;;;;;;4.50;4.00;;;;;25.03;53.60;100992.94;5097189;27;45307;-84
2022/08/03 00:50:46;;;;;;;;;5.00;4.00;;;;;25.10;53.63;101010.72;5096708;27;45507;-83
2022/08/03 00:53:13;;;;;;;;;6.00;5.25;;;;;24.95;53.70;100990.38;5097230;27;45909;-84
2022/08/03 00:55:40;;;;;;;;;5.75;5.75;;;;;24.99;54.06;101007.34;5078811;27;45406;-85
2022/08/03 00:58:07;;;;;;;;;6.00;6.00;;;;;24.96;54.59;101010.09;5096982;27;45331;-85
2022/08/03 01:00:40;;;;;;;;;5.25;5.25;;;;;24.90;54.75;101002.16;5096884;27;45338;-85
2022/08/03 01:03:08;;;;;;;;;5.75;5.75;;;;;24.84;54.63;100989.72;5096857;27;45868;-84
2022/08/03 01:05:57;;;;;;;;;5.50;5.00;;;;;24.90;54.25;100994.09;5078400;27;45430;-84
2022/08/03 01:08:57;;;;;;;;;5.50;5.00;;;;;24.95;54.40;100998.47;5078527;27;45437;-84
2022/08/03 01:11:37;;;;;;;;;5.00;5.00;;;;;24.99;54.28;100995.72;5096513;27;46513;-82
2022/08/03 01:14:07;;;;;;;;;5.00;5.00;;;;;24.91;54.32;100980.59;5096779;27;45520;-84
2022/08/03 01:16:39;;;;;;;;;6.25;6.00;;;;;24.82;54.16;100967.34;5096661;27;45482;-84
2022/08/03 01:19:30;;;;;;;;;5.25;4.25;;;;;24.96;54.74;100993.97;5096536;27;45416;-85
2022/08/03 01:22:17;;;;;;;;;7.00;6.50;;;;;24.91;54.67;100993.16;5096785;27;46397;-83
2022/08/03 01:25:17;;;;;;;;;7.25;7.25;;;;;24.86;54.52;100987.00;5096399;27;45451;-84
2022/08/03 01:28:18;;;;;;;;;7.25;6.00;;;;;24.85;55.13;100985.25;5053201;28;45634;-84
2022/08/03 01:30:45;;;;;;;;;5.75;4.50;;;;;24.74;54.99;100976.50;5096635;27;45449;-84
2022/08/03 01:33:23;;;;;;;;;5.00;4.75;;;;;24.71;54.26;100967.56;5078520;27;47224;-83
2022/08/03 01:36:22;;;;;;;;;6.00;4.00;;;;;24.80;54.07;100977.25;5096138;27;45858;-84
2022/08/03 01:38:56;;;;;;;;;4.50;3.75;;;;;24.75;54.06;100967.53;5060681;27;45505;-85
2022/08/03 01:41:28;;;;;;;;;5.25;4.75;;;;;24.86;54.12;100981.63;5096657;27;45390;-85
2022/08/03 01:43:57;;;;;;;;;4.50;4.50;;;;;24.78;53.46;100967.44;5095051;27;45393;-85
2022/08/03 01:46:24;;;;;;;;;4.00;4.00;;;;;24.70;54.03;100957.75;5077909;27;45709;-83
2022/08/03 01:48:50;;;;;;;;;3.50;3.00;;;;;24.88;54.12;100982.50;5095934;27;45442;-83
2022/08/03 01:51:18;;;;;;;;;4.00;4.00;;;;;24.88;53.49;100978.00;5096227;27;45225;-85
2022/08/03 01:53:46;;;;;;;;;4.00;3.00;;;;;24.64;53.41;100944.44;5096113;27;46730;-85
2022/08/03 01:56:14;;;;;;;;;4.50;3.00;;;;;24.69;54.06;100947.91;5077615;27;45450;-84
2022/08/03 01:58:40;;;;;;;;;4.00;1.50;;;;;24.78;53.67;100965.66;5096646;27;45621;-82
2022/08/03 02:01:09;;;;;;;;;3.00;3.00;;;;;24.83;53.55;100979.03;5096273;27;45485;-83
2022/08/03 02:03:38;;;;;;;;;4.00;4.00;;;;;24.70;53.97;100959.56;5095419;27;46459;-85
2022/08/03 02:06:06;;;;;;;;;3.25;3.25;;;;;24.66;53.92;100945.28;5096282;27;45790;-84
2022/08/03 02:08:33;;;;;;;;;4.25;3.25;;;;;24.59;53.82;100934.69;5095928;27;45381;-85
2022/08/03 02:11:01;;;;;;;;;4.00;4.00;;;;;24.65;54.05;100958.75;5095844;27;45279;-82
2022/08/03 02:13:28;;;;;;;;;3.00;3.00;;;;;24.61;54.41;100947.19;5095604;27;45767;-84
2022/08/03 02:15:55;;;;;;;;;3.25;2.25;;;;;24.61;54.41;100949.88;5095875;27;45473;-83
2022/08/03 02:18:22;;;;;;;;;3.00;3.00;;;;;24.47;54.52;100922.38;5095960;27;45493;-83
2022/08/03 02:20:49;;;;;;;;;3.25;3.25;;;;;24.41;54.69;100928.75;5095570;27;45386;-83
2022/08/03 02:23:16;;;;;;;;;3.00;2.50;;;;;24.52;54.78;100952.72;5095650;27;45467;-82
2022/08/03 02:25:44;;;;;;;;;5.00;4.00;;;;;24.36;54.54;100932.47;5095511;27;45430;-82
2022/08/03 02:28:19;;;;;;;;;3.25;3.25;;;;;24.30;54.87;100927.16;5095555;27;45471;-85
2022/08/03 02:30:50;;;;;;;;;5.00;5.00;;;;;24.27;55.20;100921.84;5095750;27;45491;-84
2022/08/03 02:33:21;;;;;;;;;2.00;2.00;;;;;24.41;55.13;100952.94;5095845;27;46556;-85
2022/08/03 02:35:48;;;;;;;;;3.00;3.00;;;;;24.27;55.16;100937.97;5076796;27;45806;-85
2022/08/03 02:38:15;;;;;;;;;5.00;4.25;;;;;24.21;55.36;100936.28;5095346;27;45406;-83
2022/08/03 02:40:43;;;;;;;;;3.75;3.50;;;;;24.19;55.38;100927.38;5095544;27;45485;-85
2022/08/03 02:43:14;;;;;;;;;4.00;4.00;;;;;24.02;54.93;100906.19;5095270;27;46790;-83
2022/08/03 02:45:44;;;;;;;;;3.50;3.25;;;;;24.14;55.48;100938.22;5076924;27;45872;-83
2022/08/03 02:48:11;;;;;;;;;3.25;3.25;;;;;23.91;55.56;100892.97;5076869;27;45519;-82
2022/08/03 02:50:38;;;;;;;;;3.75;3.75;;;;;23.97;55.75;100918.81;5094795;27;45237;-84
2022/08/03 02:53:05;;;;;;;;;3.00;3.00;;;;;23.94;55.82;100927.81;5076802;27;47044;-83
2022/08/03 02:55:34;;;;;;;;;3.00;2.00;;;;;24.06;55.50;100953.56;5076811;27;45458;-83
2022/08/03 02:58:00;;;;;;;;;3.25;3.25;;;;;23.77;56.09;100912.91;5095407;27;45633;-83
2022/08/03 03:00:26;;;;;;;;;3.25;3.25;;;;;23.78;55.83;100920.91;5095264;27;45522;-84
2022/08/03 03:02:53;;;;;;;;;5.00;4.00;;;;;23.90;56.31;100949.38;5094988;27;46361;-85
2022/08/03 03:05:18;;;;;;;;;3.25;3.25;;;;;23.77;56.61;100929.00;5094896;27;45839;-84
2022/08/03 03:07:45;;;;;;;;;3.50;3.50;;;;;23.63;56.80;100921.16;5095075;27;45703;-83
2022/08/03 03:10:11;;;;;;;;;4.00;3.50;;;;;23.62;56.78;100916.69;5095070;27;45317;-84
2022/08/03 03:12:37;;;;;;;;;3.00;3.00;;;;;23.58;56.29;100920.34;5094870;27;45402;-85
2022/08/03 03:15:06;;;;;;;;;4.00;3.50;;;;;23.70;56.23;100948.81;5094932;27;45891;-83
2022/08/03 03:17:33;;;;;;;;;3.00;3.00;;;;;23.52;57.08;100917.75;5094970;27;45468;-85
2022/08/03 03:19:59;;;;;;;;;2.50;2.00;;;;;23.55;56.68;100923.09;5094766;27;45342;-83
2022/08/03 03:22:26;;;;;;;;;2.75;2.75;;;;;23.40;57.02;100897.38;5094961;27;46397;-84
2022/08/03 03:24:53;;;;;;;;;3.00;3.00;;;;;23.29;56.84;100889.47;5076238;27;45842;-86
2022/08/03 03:27:20;;;;;;;;;2.00;2.00;;;;;23.51;57.00;100930.28;5094963;27;45640;-84
2022/08/03 03:29:46;;;;;;;;;2.75;2.75;;;;;23.27;57.29;100899.38;5094611;27;45327;-85
2022/08/03 03:32:12;;;;;;;;;5.00;4.25;;;;;23.34;57.26;100917.13;5094128;27;45575;-85
2022/08/03 03:34:37;;;;;;;;;4.50;4.50;;;;;23.29;57.33;100916.31;5094179;27;45352;-84
2022/08/03 03:37:04;;;;;;;;;3.75;3.25;;;;;23.33;57.43;100923.41;5076172;27;45497;-84
2022/08/03 03:39:29;;;;;;;;;4.75;3.00;;;;;23.18;57.62;100905.75;5076077;27;45561;-82
2022/08/03 03:41:55;;;;;;;;;2.25;2.25;;;;;23.24;57.79;100918.16;5094466;27;46552;-84
2022/08/03 03:44:20;;;;;;;;;3.00;3.00;;;;;23.14;57.59;100906.69;5094483;27;45507;-83
2022/08/03 03:46:46;;;;;;;;;6.00;4.00;;;;;23.13;58.20;100902.25;5094678;27;45662;-85
2022/08/03 03:49:11;;;;;;;;;5.00;4.25;;;;;23.05;57.76;100890.72;5093897;27;45547;-84
2022/08/03 03:51:36;;;;;;;;;3.25;3.25;;;;;23.22;57.98;100921.81;5094222;27;45455;-83
2022/08/03 03:54:06;;;;;;;;;3.00;3.00;;;;;23.12;58.06;100911.19;5075814;27;46134;-85
2022/08/03 03:56:31;;;;;;;;;3.00;3.00;;;;;23.08;57.83;100914.84;5075924;27;45322;-83
2022/08/03 03:58:57;;;;;;;;;3.00;2.75;;;;;23.07;58.51;100910.38;5076119;27;45586;-83
2022/08/03 04:01:22;;;;;;;;;3.50;3.00;;;;;22.98;58.24;100910.50;5094389;27;46638;-84
2022/08/03 04:03:47;;;;;;;;;4.00;4.00;;;;;23.00;58.33;100914.03;5093908;27;45224;-84
2022/08/03 04:11:51;;;;;;;;;2.25;2.00;;;;;22.95;58.53;100915.00;5093875;27;45388;-83
2022/08/03 04:14:32;;;;;;;;;3.75;3.00;;;;;23.03;58.66;100934.56;5094110;27;45817;-83
2022/08/03 04:17:01;;;;;;;;;3.75;3.00;;;;;23.06;58.72;100947.94;5094489;27;45653;-83
2022/08/03 04:19:31;;;;;;;;;4.50;3.75;;;;;22.96;58.65;100931.09;5093656;27;45448;-83
2022/08/03 04:21:59;;;;;;;;;3.00;3.00;;;;;22.99;58.94;100944.44;5093811;27;46338;-84
2022/08/03 04:24:33;;;;;;;;;3.00;3.00;;;;;22.94;58.84;100940.94;5093970;27;45714;-85
2022/08/03 04:27:01;;;;;;;;;2.75;2.00;;;;;22.92;58.68;100940.09;5093939;27;45492;-84
2022/08/03 04:29:29;;;;;;;;;3.50;3.00;;;;;22.89;58.87;100950.84;5094040;27;45521;-84
2022/08/03 04:31:58;;;;;;;;;4.00;2.25;;;;;22.77;59.15;100924.16;5075224;27;48371;-84
2022/08/03 04:34:24;;;;;;;;;4.00;4.00;;;;;22.81;59.70;100939.31;5074888;27;45900;-84
2022/08/03 04:36:53;;;;;;;;;4.50;3.50;;;;;22.54;59.20;100886.94;5075452;27;45467;-84
2022/08/03 04:39:24;;;;;;;;;3.00;3.00;;;;;22.78;59.13;100934.84;5093799;27;45464;-85
2022/08/03 04:41:53;;;;;;;;;3.00;3.00;;;;;22.78;59.70;100934.84;5093772;27;46492;-83
2022/08/03 04:44:22;;;;;;;;;2.00;2.00;;;;;22.61;59.27;100913.66;5093560;27;45417;-83
2022/08/03 04:46:48;;;;;;;;;5.75;4.00;;;;;22.63;59.58;100922.53;5075276;27;45435;-83
2022/08/03 04:49:14;;;;;;;;;3.00;3.00;;;;;22.60;60.13;100910.97;5093616;27;45527;-83
2022/08/03 04:51:41;;;;;;;;;3.00;3.00;;;;;22.54;59.76;100903.00;5093332;27;45588;-83
2022/08/03 04:54:11;;;;;;;;;4.00;3.75;;;;;22.75;59.72;100934.00;5093480;27;45793;-83
2022/08/03 04:56:39;;;;;;;;;3.00;3.00;;;;;22.66;60.14;100925.19;5093472;27;45442;-83
2022/08/03 04:59:05;;;;;;;;;4.00;3.50;;;;;22.50;59.96;100901.25;5093659;27;45327;-82
2022/08/03 05:01:30;;;;;;;;;3.50;3.50;;;;;22.77;59.88;100941.13;5074812;27;47981;-83
2022/08/03 05:03:55;;;;;;;;;3.50;3.50;;;;;22.79;60.25;100943.78;5074772;27;45703;-83
2022/08/03 05:06:21;;;;;;;;;4.75;4.75;;;;;22.76;60.06;100944.72;5075205;27;45419;-83
2022/08/03 05:08:46;;;;;;;;;3.75;3.25;;;;;22.62;60.44;100917.22;5093430;27;45326;-83
2022/08/03 05:11:11;;;;;;;;;4.25;4.25;;;;;22.65;60.75;100927.88;5093317;27;46243;-84
2022/08/03 05:13:37;;;;;;;;;6.00;6.00;;;;;22.56;60.68;100907.47;5093147;27;45363;-83
2022/08/03 05:16:02;;;;;;;;;5.00;4.25;;;;;22.63;60.88;100919.84;5093134;27;45298;-81
2022/08/03 05:18:27;;;;;;;;;4.50;4.00;;;;;22.73;60.85;100938.50;5093722;27;45400;-83
2022/08/03 05:20:53;;;;;;;;;5.00;5.00;;;;;22.82;60.76;100943.75;5096767;27;45356;-83
2022/08/03 05:23:18;;;;;;;;;5.00;4.50;;;;;22.78;60.62;100936.66;5096430;27;45867;-83
2022/08/03 05:25:44;;;;;;;;;4.25;4.00;;;;;22.86;60.37;100953.53;5078392;27;45523;-84
2022/08/03 05:28:09;;;;;;;;;3.50;3.25;;;;;22.79;60.81;100936.63;5078326;27;45496;-85
2022/08/03 05:30:36;;;;;;;;;6.00;5.00;;;;;22.89;60.55;100953.50;5078245;27;47210;-85
2022/08/03 05:33:02;;;;;;;;;4.75;4.50;;;;;22.80;60.55;100934.84;5096647;27;45887;-84
2022/08/03 05:35:28;;;;;;;;;5.25;4.75;;;;;22.87;60.41;100945.47;5095860;27;45378;-84
2022/08/03 05:37:53;;;;;;;;;5.00;4.75;;;;;22.95;61.14;100957.91;5078137;27;45458;-84
2022/08/03 05:40:18;;;;;;;;;4.50;3.50;;;;;22.79;60.62;100925.03;5078081;27;46953;-83
2022/08/03 05:42:44;;;;;;;;;3.00;3.00;;;;;22.89;60.85;100932.94;5096334;27;45544;-85
2022/08/03 05:45:19;;;;;;;;;5.75;5.00;;;;;22.96;60.29;100939.13;5096525;27;45391;-83
2022/08/03 05:47:44;;;;;;;;;4.75;4.00;;;;;23.07;60.48;100950.59;5096256;27;45466;-85
2022/08/03 05:50:11;;;;;;;;;4.00;4.00;;;;;23.11;60.61;100949.66;5095912;27;46236;-83
2022/08/03 05:52:37;;;;;;;;;4.75;4.25;;;;;23.15;60.83;100953.16;5096083;27;45243;-84
2022/08/03 05:55:07;;;;;;;;;3.75;3.25;;;;;22.89;60.72;100884.72;5096113;27;45405;-86
2022/08/03 05:57:33;;;;;;;;;4.50;4.00;;;;;23.15;60.68;100926.34;5096025;27;45515;-85
2022/08/03 05:59:58;;;;;;;;;5.00;5.00;;;;;23.29;60.60;100940.44;5095889;27;46723;-83
2022/08/03 06:02:23;;;;;;;;;4.00;3.25;;;;;23.25;60.16;100921.72;5096279;27;45410;-85
2022/08/03 06:04:49;;;;;;;;;4.75;4.25;;;;;23.34;59.93;100927.84;5095926;27;45369;-83
2022/08/03 06:07:14;;;;;;;;;5.00;5.00;;;;;23.35;59.84;100926.06;5077609;27;45586;-83
2022/08/03 06:09:40;;;;;;;;;3.75;3.75;;;;;23.51;59.58;100934.78;5077503;27;46580;-83
2022/08/03 06:12:06;;;;;;;;;4.75;3.50;;;;;23.48;59.87;100930.31;5096122;27;45267;-82
2022/08/03 06:14:31;;;;;;;;;5.00;5.00;;;;;23.51;59.98;100919.56;5077620;27;45454;-85
2022/08/03 06:16:56;;;;;;;;;5.50;4.50;;;;;23.74;59.14;100951.41;5077333;27;45265;-85
2022/08/03 06:19:23;;;;;;;;;5.00;5.00;;;;;23.79;59.43;100946.88;5095183;27;47230;-84
2022/08/03 06:21:48;;;;;;;;;3.75;3.75;;;;;23.96;59.12;100967.19;5095914;27;45350;-85
2022/08/03 06:24:14;;;;;;;;;4.75;4.50;;;;;23.81;59.30;100928.06;5096100;27;45468;-85
2022/08/03 06:26:39;;;;;;;;;5.00;4.00;;;;;23.97;58.76;100945.66;5095682;27;45488;-84
2022/08/03 06:29:04;;;;;;;;;3.00;3.00;;;;;24.04;58.58;100949.13;5095319;27;45447;-85
2022/08/03 06:31:30;;;;;;;;;4.25;4.25;;;;;23.97;58.57;100928.66;5095770;27;45409;-84
2022/08/03 06:33:55;;;;;;;;;5.75;5.75;;;;;24.15;58.37;100956.09;5095199;27;45433;-84
2022/08/03 06:36:20;;;;;;;;;5.50;5.25;;;;;24.17;58.24;100943.50;5077131;27;45491;-84
2022/08/03 06:38:46;;;;;;;;;4.25;4.00;;;;;24.21;58.55;100936.28;5076837;27;47782;-85
2022/08/03 06:41:11;;;;;;;;;5.00;4.00;;;;;24.18;57.90;100929.16;5095519;27;45541;-85
2022/08/03 06:43:37;;;;;;;;;6.00;5.00;;;;;24.32;57.28;100949.50;5095415;27;45495;-82
2022/08/03 06:46:04;;;;;;;;;5.25;5.25;;;;;24.29;57.67;100928.09;5095503;27;45536;-85
2022/08/03 06:48:30;;;;;;;;;4.50;4.50;;;;;24.50;57.64;100949.19;5076436;27;47204;-83
2022/08/03 06:50:55;;;;;;;;;5.00;4.75;;;;;24.62;57.61;100965.06;5095267;27;45333;-85
2022/08/03 06:53:21;;;;;;;;;5.00;5.00;;;;;24.60;57.82;100953.47;5095466;27;45465;-85
2022/08/03 06:55:46;;;;;;;;;5.00;5.00;;;;;24.57;57.16;100940.09;5095183;27;45421;-84
2022/08/03 06:58:12;;;;;;;;;5.25;5.25;;;;;24.70;57.37;100959.56;5094931;27;46782;-85
2022/08/03 07:00:37;;;;;;;;;5.50;5.00;;;;;24.71;57.44;100947.88;5076735;27;46110;-84
2022/08/03 07:03:02;;;;;;;;;5.75;5.50;;;;;24.66;57.04;100937.22;5077079;27;45562;-85
2022/08/03 07:05:29;;;;;;;;;6.25;4.50;;;;;24.76;56.66;100945.09;5094834;27;45482;-85
2022/08/03 07:07:56;;;;;;;;;7.00;7.00;;;;;24.89;56.43;100969.00;5076470;27;48296;-83
2022/08/03 07:10:22;;;;;;;;;5.00;5.00;;;;;24.80;56.11;100938.75;5076407;27;45697;-83
2022/08/03 07:12:47;;;;;;;;;4.75;4.25;;;;;24.92;57.04;100965.34;5094869;27;45392;-85
2022/08/03 07:15:13;;;;;;;;;5.50;5.50;;;;;24.84;56.14;100938.66;5094794;27;45418;-86
2022/08/03 07:17:38;;;;;;;;;5.50;5.00;;;;;24.83;56.43;100931.50;5094400;27;46268;-83
2022/08/03 07:20:05;;;;;;;;;6.25;6.00;;;;;24.96;55.92;100943.75;5075858;27;45423;-83
2022/08/03 07:22:31;;;;;;;;;4.00;4.00;;;;;25.07;56.37;100957.00;5094435;27;45354;-83
2022/08/03 07:24:57;;;;;;;;;6.00;5.00;;;;;25.14;55.88;100964.03;5076410;27;45794;-83
2022/08/03 07:27:25;;;;;;;;;6.25;6.00;;;;;25.10;56.04;100943.50;5094338;27;46151;-83
2022/08/03 07:29:51;;;;;;;;;5.00;5.00;;;;;25.06;55.78;100933.69;5076061;27;45486;-84
2022/08/03 07:32:16;;;;;;;;;6.00;5.25;;;;;25.17;55.80;100947.84;5094740;27;45503;-83
2022/08/03 07:34:41;;;;;;;;;5.50;5.50;;;;;25.25;56.13;100950.31;5093860;27;45500;-83
2022/08/03 07:37:07;;;;;;;;;5.00;3.75;;;;;25.24;55.44;100942.31;5094165;27;46669;-84
2022/08/03 07:39:32;;;;;;;;;5.00;5.00;;;;;25.29;55.10;100946.66;5094198;27;45372;-85
2022/08/03 07:41:57;;;;;;;;;7.25;6.00;;;;;25.34;54.50;100950.13;5075258;27;45350;-84
2022/08/03 07:44:23;;;;;;;;;6.75;6.50;;;;;25.27;54.63;100936.84;5075985;27;45365;-83
2022/08/03 07:46:49;;;;;;;;;6.00;6.00;;;;;25.34;54.39;100938.47;5094247;27;46274;-84
2022/08/03 07:49:15;;;;;;;;;7.50;7.00;;;;;25.39;54.52;100947.34;5075532;27;45986;-84
2022/08/03 07:51:40;;;;;;;;;4.25;4.25;;;;;25.46;54.57;100949.81;5094342;27;45273;-84
2022/08/03 07:54:06;;;;;;;;;6.25;5.25;;;;;25.64;54.48;100971.84;5094361;27;45358;-83
2022/08/03 07:56:32;;;;;;;;;5.00;5.00;;;;;25.65;54.06;100962.84;5075404;27;47325;-83
2022/08/03 07:58:58;;;;;;;;;7.00;6.00;;;;;25.60;53.68;100946.81;5094092;27;45274;-84
2022/08/03 08:01:24;;;;;;;;;6.00;5.25;;;;;25.72;53.69;100959.97;5075741;27;45543;-84
2022/08/03 08:03:50;;;;;;;;;5.50;5.50;;;;;25.82;53.93;100965.19;5093724;27;45503;-84
2022/08/03 08:06:16;;;;;;;;;6.25;5.00;;;;;25.87;53.74;100961.44;5093863;27;46293;-84
2022/08/03 08:08:42;;;;;;;;;5.75;5.00;;;;;25.79;53.22;100946.41;5093840;27;45290;-83
2022/08/03 08:11:07;;;;;;;;;7.50;6.50;;;;;25.96;53.40;100963.00;5075744;27;45354;-84
2022/08/03 08:13:37;;;;;;;;;5.50;4.75;;;;;25.76;54.50;100925.81;5075718;27;45449;-85
2022/08/03 08:16:03;;;;;;;;;6.00;5.50;;;;;25.95;52.82;100948.66;5075548;27;47984;-84
2022/08/03 08:18:28;;;;;;;;;6.50;6.00;;;;;25.97;52.55;100943.25;5093333;27;45363;-85
2022/08/03 08:20:54;;;;;;;;;5.00;5.00;;;;;26.03;52.69;100934.13;5093736;27;45280;-83
2022/08/03 08:23:22;;;;;;;;;4.75;4.75;;;;;26.20;52.48;100948.88;5093736;27;45358;-84
2022/08/03 08:25:50;;;;;;;;;5.25;5.00;;;;;26.15;51.87;100936.47;5075369;27;47623;-84
2022/08/03 08:28:21;;;;;;;;;5.25;4.75;;;;;26.16;52.21;100922.97;5093557;27;45440;-84
2022/08/03 08:30:47;;;;;;;;;4.00;4.00;;;;;26.38;52.04;100946.63;5070881;27;45725;-84
2022/08/03 08:33:13;;;;;;;;;6.00;5.50;;;;;26.39;52.30;100943.00;5093675;27;45345;-83
2022/08/03 08:35:39;;;;;;;;;4.75;4.75;;;;;26.34;52.13;100923.38;5093062;27;45350;-84
2022/08/03 08:38:04;;;;;;;;;4.75;4.50;;;;;26.40;50.82;100923.22;5074884;27;45404;-85
2022/08/03 08:40:30;;;;;;;;;5.00;4.50;;;;;26.59;51.06;100943.38;5093471;27;45353;-84
2022/08/03 08:42:55;;;;;;;;;6.00;6.00;;;;;26.55;50.53;100928.22;5093664;27;45434;-84
2022/08/03 08:45:20;;;;;;;;;5.25;4.25;;;;;26.59;49.93;100924.50;5093362;27;45457;-84
2022/08/03 08:47:47;;;;;;;;;6.00;5.25;;;;;26.68;50.42;100928.75;5093374;27;45438;-84
2022/08/03 08:50:18;;;;;;;;;4.50;4.50;;;;;26.69;50.03;100926.00;5093701;27;45451;-84
2022/08/03 08:52:45;;;;;;;;;4.50;4.00;;;;;26.90;49.62;100942.50;5076080;27;45533;-84
2022/08/03 08:55:16;;;;;;;;;5.50;5.00;;;;;26.99;49.24;100936.81;5078610;27;47954;-84
2022/08/03 08:57:51;;;;;;;;;4.25;4.25;;;;;26.76;49.73;100886.25;5078242;27;45371;-84
2022/08/03 09:00:17;;;;;;;;;4.50;4.00;;;;;27.05;49.18;100930.38;5096901;27;45447;-84
2022/08/03 09:02:43;;;;;;;;;4.25;4.25;;;;;27.14;48.88;100938.19;5096752;27;45440;-84
2022/08/03 09:05:14;;;;;;;;;6.00;5.00;;;;;27.20;48.35;100928.09;5096240;27;46469;-84
2022/08/03 09:07:40;;;;;;;;;3.25;3.25;;;;;27.20;47.34;100920.00;5078460;27;45656;-83
2022/08/03 09:10:07;;;;;;;;;5.00;5.00;;;;;27.23;47.09;100910.91;5097217;27;45693;-83
2022/08/03 09:12:44;;;;;;;;;4.75;4.75;;;;;27.39;47.86;100922.09;5097068;27;45509;-85
2022/08/03 09:15:17;;;;;;;;;4.25;4.25;;;;;27.51;47.28;100925.28;5096631;27;45461;-85
2022/08/03 09:17:43;;;;;;;;;4.50;4.00;;;;;27.44;47.23;100903.97;5096802;27;45713;-84
2022/08/03 09:20:09;;;;;;;;;4.00;3.00;;;;;27.56;46.56;100918.88;5096445;27;45399;-84
2022/08/03 09:22:35;;;;;;;;;3.25;3.25;;;;;27.58;47.09;100912.47;5078226;27;45594;-83
2022/08/03 09:25:06;;;;;;;;;3.00;3.00;;;;;27.69;46.81;100914.84;5078140;27;47030;-83
2022/08/03 09:27:45;;;;;;;;;4.25;4.25;;;;;27.56;46.02;100878.38;5096265;27;45370;-84
2022/08/03 09:30:14;;;;;;;;;3.25;3.00;;;;;27.85;45.84;100926.91;5078292;27;45491;-83
2022/08/03 09:32:39;;;;;;;;;3.00;3.00;;;;;27.85;46.32;100915.22;5096599;27;45394;-83
2022/08/03 09:35:05;;;;;;;;;3.00;3.00;;;;;27.84;45.99;100905.38;5096204;27;45616;-84
2022/08/03 09:37:30;;;;;;;;;3.00;2.50;;;;;27.96;45.93;100924.72;5096262;27;45438;-84
2022/08/03 09:39:56;;;;;;;;;3.25;3.25;;;;;27.84;45.18;100890.03;5096429;27;45665;-85
2022/08/03 09:42:22;;;;;;;;;3.75;3.00;;;;;27.93;45.75;100899.59;5077832;27;45533;-85
2022/08/03 09:44:50;;;;;;;;;3.25;3.00;;;;;28.18;45.19;100927.56;5077643;27;47045;-83
2022/08/03 09:47:27;;;;;;;;;3.25;3.25;;;;;28.18;43.83;100911.34;5077453;27;45749;-84
2022/08/03 09:50:03;;;;;;;;;3.75;3.25;;;;;28.15;44.29;100899.75;5096398;27;45418;-85
2022/08/03 09:52:36;;;;;;;;;3.00;3.00;;;;;28.31;43.97;100906.38;5096244;27;45382;-84
2022/08/03 09:55:08;;;;;;;;;3.75;3.75;;;;;28.37;43.90;100905.28;5095882;27;46209;-84
2022/08/03 09:57:33;;;;;;;;;5.75;4.00;;;;;28.40;43.54;100905.19;5095774;27;45413;-85
2022/08/03 10:00:12;;;;;;;;;4.00;3.75;;;;;28.52;43.55;100905.63;5077850;27;45518;-84
2022/08/03 10:02:39;;;;;;;;;2.75;2.75;;;;;28.31;44.19;100863.09;5077747;27;45302;-85
2022/08/03 10:05:08;;;;;;;;;5.25;5.00;;;;;28.63;43.68;100905.22;5094735;27;46188;-84
2022/08/03 10:07:49;;;;;;;;;5.00;4.25;;;;;28.69;43.46;100904.09;5077351;27;45690;-85
2022/08/03 10:10:16;;;;;;;;;3.00;3.00;;;;;28.55;43.11;100858.63;5077780;27;45371;-85
2022/08/03 10:12:43;;;;;;;;;3.50;3.00;;;;;28.92;42.63;100898.69;5095931;27;45442;-83
2022/08/03 10:15:10;;;;;;;;;3.00;3.00;;;;;28.88;43.05;100886.22;5095677;27;45781;-85
2022/08/03 10:17:37;;;;;;;;;5.50;5.00;;;;;29.00;43.31;100895.72;5095641;27;45564;-84
2022/08/03 10:20:05;;;;;;;;;3.75;3.75;;;;;28.82;43.65;100856.72;5095641;27;45486;-85
2022/08/03 10:22:33;;;;;;;;;4.75;4.75;;;;;28.91;43.46;100869.84;5077288;27;45418;-83
2022/08/03 10:25:11;;;;;;;;;4.25;3.50;;;;;29.16;43.42;100890.56;5076830;27;47521;-84
2022/08/03 10:27:39;;;;;;;;;3.00;3.00;;;;;29.13;42.70;100859.09;5095517;27;45802;-85
2022/08/03 10:30:07;;;;;;;;;6.25;5.25;;;;;29.35;42.29;100877.16;5095495;27;45311;-84
2022/08/03 10:32:35;;;;;;;;;4.50;4.50;;;;;29.41;42.45;100875.09;5095505;27;45488;-85
2022/08/03 10:35:07;;;;;;;;;3.25;3.25;;;;;29.48;41.98;100873.00;5076699;27;47159;-84
2022/08/03 10:37:39;;;;;;;;;4.50;4.00;;;;;29.41;42.73;100855.22;5095179;27;45631;-84
2022/08/03 10:40:07;;;;;;;;;3.25;3.25;;;;;29.42;42.16;100855.19;5077024;27;45328;-85
2022/08/03 10:42:34;;;;;;;;;5.50;4.50;;;;;29.45;41.80;100840.63;5076627;27;45661;-84
2022/08/03 10:45:04;;;;;;;;;3.25;3.25;;;;;29.60;42.06;100845.41;5076536;27;47556;-84
2022/08/03 10:47:31;;;;;;;;;3.50;3.50;;;;;29.62;41.72;100842.66;5094784;27;45845;-84
2022/08/03 10:49:57;;;;;;;;;3.75;3.00;;;;;29.69;41.86;100845.03;5095017;27;45365;-84
2022/08/03 10:52:22;;;;;;;;;4.50;2.75;;;;;29.74;42.22;100847.53;5076683;27;45385;-84
2022/08/03 10:57:52;;;;;;;;;2.25;2.25;;;;;29.74;40.43;100829.44;5095403;27;45749;-85
2022/08/03 11:00:29;;;;;;;;;3.25;3.00;;;;;30.00;40.75;100857.22;5095064;27;45330;-83
2022/08/03 11:03:13;;;;;;;;;5.50;4.50;;;;;30.07;40.24;100851.47;5095325;27;45663;-83
2022/08/03 11:05:40;;;;;;;;;5.00;5.00;;;;;30.15;40.11;100843.06;5076138;27;48159;-84
2022/08/03 11:08:23;;;;;;;;;4.00;3.75;;;;;30.21;40.03;100844.59;5094680;27;45844;-85
2022/08/03 11:10:51;;;;;;;;;3.75;3.00;;;;;30.20;39.00;100819.31;5076672;27;45468;-84
2022/08/03 11:13:19;;;;;;;;;3.00;3.00;;;;;30.29;38.69;100823.41;5076431;27;45375;-84
2022/08/03 11:15:47;;;;;;;;;3.00;3.00;;;;;30.44;39.15;100832.69;5094075;27;46207;-83
2022/08/03 11:18:13;;;;;;;;;3.50;2.75;;;;;30.41;38.59;100812.03;5094076;27;45323;-85
2022/08/03 11:20:50;;;;;;;;;3.75;3.00;;;;;30.53;38.53;100824.13;5094538;27;45446;-85
2022/08/03 11:23:19;;;;;;;;;2.00;2.00;;;;;30.55;38.46;100806.81;5094646;27;45502;-85
2022/08/03 11:26:13;;;;;;;;;2.00;2.00;;;;;30.78;37.38;100826.56;5094278;27;46305;-84
2022/08/03 11:28:40;;;;;;;;;2.50;2.50;;;;;30.77;38.33;100819.38;5094418;27;45418;-84
2022/08/03 11:31:32;;;;;;;;;4.00;4.00;;;;;30.85;37.63;100805.47;5076417;27;45446;-84
2022/08/03 11:34:04;;;;;;;;;3.75;2.25;;;;;30.95;36.84;100813.06;5077914;27;45519;-84
2022/08/03 11:36:30;;;;;;;;;3.25;3.25;;;;;30.89;37.29;100804.34;5094025;27;45544;-84
2022/08/03 11:39:15;;;;;;;;;2.00;2.00;;;;;31.03;37.46;100820.81;5076106;27;45652;-84